Time;durP1;ratioP1;P1;durP2;ratioP2;P2;SDS_P1;SDS_P2;PMS_P1;PMS_P2;Temp;Humidity;BMP_temperature;BMP_pressure;BME280_temperature;BME280_humidity;BME280_pressure;Samples;Min_cycle;Max_cycle;Signal;HPM_P1;HPM_P2
2023/05/17 00:01:24;;;;;;;44.08;7.05;;;;;;;-144.73;100.00;54329.72;5033412;28;20032;-68
2023/05/17 00:03:52;;;;;;;42.72;7.35;;;;;;;-144.73;100.00;54317.38;5051007;28;20033;-68
2023/05/17 00:06:18;;;;;;;38.42;6.72;;;;;;;-144.73;100.00;54325.59;5032848;28;20116;-68
2023/05/17 00:08:44;;;;;;;52.65;8.30;;;;;;;-144.73;100.00;54350.22;5050981;28;20078;-68
2023/05/17 00:11:09;;;;;;;45.70;9.63;;;;;;;-144.73;100.00;54321.50;5033805;28;20017;-67
2023/05/17 00:13:34;;;;;;;31.15;6.70;;;;;;;-144.73;100.00;54342.03;5050313;28;20066;-68
2023/05/17 00:16:00;;;;;;;45.15;6.45;;;;;;;-144.73;100.00;54350.22;5033513;28;20025;-68
2023/05/17 00:18:25;;;;;;;49.17;7.47;;;;;;;-144.73;100.00;54370.75;5032727;28;20033;-67
2023/05/17 00:20:50;;;;;;;45.05;7.18;;;;;;;-144.73;100.00;54329.72;5033472;28;20028;-67
2023/05/17 00:23:16;;;;;;;56.60;7.47;;;;;;;-144.73;100.00;54323.53;5032458;28;20041;-67
2023/05/17 00:25:41;;;;;;;59.10;6.97;;;;;;;-144.73;100.00;54350.22;5032954;28;20028;-68
2023/05/17 00:28:06;;;;;;;40.97;6.18;;;;;;;-144.73;100.00;54300.97;5032400;28;20041;-67
2023/05/17 00:30:32;;;;;;;43.78;6.70;;;;;;;-144.73;100.00;54350.22;5050791;28;20056;-67
2023/05/17 00:32:57;;;;;;;38.70;6.95;;;;;;;-144.73;100.00;54335.88;5050298;28;20030;-68
2023/05/17 00:35:22;;;;;;;42.17;7.00;;;;;;;-144.73;100.00;54358.44;5032984;28;20097;-68
2023/05/17 00:37:48;;;;;;;37.90;6.38;;;;;;;-144.73;100.00;54309.19;5032675;28;20067;-67
2023/05/17 00:40:15;;;;;;;67.35;6.75;;;;;;;-144.73;100.00;54358.44;5050493;28;20032;-68
2023/05/17 00:42:40;;;;;;;39.00;6.90;;;;;;;-144.73;100.00;54329.72;5050169;28;20059;-67
2023/05/17 00:45:06;;;;;;;44.95;6.68;;;;;;;-144.73;100.00;54321.50;5033126;28;20017;-67
2023/05/17 00:47:31;;;;;;;52.95;6.88;;;;;;;-144.73;100.00;54329.72;5032469;28;20581;-67
2023/05/17 00:49:57;;;;;;;47.45;7.45;;;;;;;-144.73;100.00;54300.97;5033544;28;20033;-67
2023/05/17 00:52:22;;;;;;;39.65;7.78;;;;;;;-144.73;100.00;54358.44;5049994;28;20101;-67
2023/05/17 00:54:50;;;;;;;41.45;6.28;;;;;;;-144.73;100.00;54333.81;5050647;28;20051;-67
2023/05/17 00:57:15;;;;;;;53.08;6.63;;;;;;;-144.73;100.00;54337.91;5031583;28;20041;-66
2023/05/17 00:59:45;;;;;;;41.28;7.03;;;;;;;-144.73;100.00;54350.22;5050092;28;20029;-66
2023/05/17 01:02:11;;;;;;;49.50;8.23;;;;;;;-144.73;100.00;54346.13;5032146;28;20037;-66
2023/05/17 01:04:37;;;;;;;47.72;5.65;;;;;;;-144.73;100.00;54342.03;5050449;28;20372;-66
2023/05/17 01:07:02;;;;;;;53.65;6.53;;;;;;;-144.73;100.00;54348.19;5049952;28;20025;-66
2023/05/17 01:09:28;;;;;;;54.20;7.63;;;;;;;-144.73;100.00;54313.28;5032884;28;20028;-67
2023/05/17 01:12:06;;;;;;;35.42;6.43;;;;;;;-144.73;100.00;54354.34;5049776;28;20029;-67
2023/05/17 01:14:44;;;;;;;35.17;5.90;;;;;;;-144.73;100.00;54317.38;5032900;28;20028;-66
2023/05/17 01:17:21;;;;;;;32.72;5.70;;;;;;;-144.73;100.00;54350.22;5031847;28;20029;-67
2023/05/17 01:20:05;;;;;;;50.13;7.00;;;;;;;-144.73;100.00;54346.13;5050178;28;20044;-66
2023/05/17 01:22:50;;;;;;;47.28;6.60;;;;;;;-144.73;100.00;54284.56;5049650;28;20029;-67
2023/05/17 01:25:35;;;;;;;40.63;6.65;;;;;;;-144.73;100.00;54346.13;5032477;28;20021;-67
2023/05/17 01:28:02;;;;;;;40.55;5.93;;;;;;;-144.73;100.00;54366.66;5031699;28;20086;-67
2023/05/17 01:30:29;;;;;;;55.13;6.95;;;;;;;-144.73;100.00;54337.91;5050017;28;20033;-67
2023/05/17 01:32:57;;;;;;;49.40;7.25;;;;;;;-144.73;100.00;54321.50;5031796;28;20032;-67
2023/05/17 01:35:23;;;;;;;40.72;7.20;;;;;;;-144.73;100.00;54329.72;5032324;28;20029;-66
2023/05/17 01:37:49;;;;;;;50.78;7.88;;;;;;;-144.73;100.00;54350.22;5031729;28;20542;-67
2023/05/17 01:40:16;;;;;;;43.80;6.80;;;;;;;-144.73;100.00;54321.50;5034462;28;20041;-66
2023/05/17 01:42:43;;;;;;;49.50;7.00;;;;;;;-144.73;100.00;54333.81;5035628;28;20502;-67
2023/05/17 01:45:30;;;;;;;40.90;6.00;;;;;;;-144.73;100.00;54333.81;5052729;28;20092;-67
2023/05/17 01:48:20;;;;;;;35.75;5.50;;;;;;;-144.73;100.00;54327.66;5053273;28;20040;-66
2023/05/17 01:50:51;;;;;;;47.92;6.47;;;;;;;-144.73;100.00;54366.66;5036093;28;20048;-66
2023/05/17 01:53:27;;;;;;;39.03;4.83;;;;;;;-144.73;100.00;54358.44;5034889;28;20037;-66
2023/05/17 01:55:57;;;;;;;41.05;6.90;;;;;;;-144.73;100.00;54368.69;5036342;28;20072;-66
2023/05/17 01:58:24;;;;;;;39.58;6.07;;;;;;;-144.73;100.00;54337.91;5035168;28;20033;-66
2023/05/17 02:00:54;;;;;;;36.00;5.53;;;;;;;-144.73;100.00;54317.38;5036770;28;20060;-66
2023/05/17 02:03:20;;;;;;;38.00;5.22;;;;;;;-144.73;100.00;54358.44;5035081;28;20479;-65
2023/05/17 02:05:46;;;;;;;29.30;6.13;;;;;;;-144.73;100.00;54346.13;5036103;28;20059;-66
2023/05/17 02:08:12;;;;;;;42.28;6.28;;;;;;;-144.73;100.00;54374.84;5035323;28;20041;-66
2023/05/17 02:10:37;;;;;;;40.03;5.43;;;;;;;-144.73;100.00;54333.81;5053204;28;20124;-66
2023/05/17 02:13:03;;;;;;;36.15;5.70;;;;;;;-144.73;100.00;54342.03;5035061;28;20025;-66
2023/05/17 02:15:29;;;;;;;42.40;5.10;;;;;;;-144.73;100.00;54395.38;5053585;28;20044;-65
2023/05/17 02:17:54;;;;;;;37.22;6.57;;;;;;;-144.73;100.00;54370.75;5035083;28;20115;-66
2023/05/17 02:20:20;;;;;;;28.27;4.50;;;;;;;-144.73;100.00;54329.72;5053072;28;20031;-66
2023/05/17 02:22:45;;;;;;;35.70;5.22;;;;;;;-144.73;100.00;54358.44;5052348;28;20092;-66
2023/05/17 02:25:11;;;;;;;33.83;4.47;;;;;;;-144.73;100.00;54346.13;5035964;28;20033;-66
2023/05/17 02:27:36;;;;;;;30.00;5.25;;;;;;;-144.73;100.00;54305.06;5052347;28;20048;-66
2023/05/17 02:30:03;;;;;;;40.85;5.32;;;;;;;-144.73;100.00;54346.13;5035225;28;20032;-66
2023/05/17 02:32:29;;;;;;;41.28;5.90;;;;;;;-144.73;100.00;54342.03;5034567;28;20037;-67
2023/05/17 02:34:55;;;;;;;40.70;5.65;;;;;;;-144.73;100.00;54317.38;5052826;28;20102;-66
2023/05/17 02:37:20;;;;;;;31.25;5.35;;;;;;;-144.73;100.00;54319.44;5034572;28;20492;-66
2023/05/17 02:39:46;;;;;;;38.97;6.28;;;;;;;-144.73;100.00;54333.81;5052851;28;20055;-66
2023/05/17 02:42:11;;;;;;;46.17;5.68;;;;;;;-144.73;100.00;54344.06;5034410;28;20033;-66
2023/05/17 02:44:37;;;;;;;28.58;4.40;;;;;;;-144.73;100.00;54350.22;5052730;28;20039;-66
2023/05/17 02:47:02;;;;;;;37.00;4.15;;;;;;;-144.73;100.00;54333.81;5052349;28;20032;-66
2023/05/17 02:49:28;;;;;;;22.15;4.28;;;;;;;-144.73;100.00;54362.53;5035369;28;20036;-66
2023/05/17 02:51:53;;;;;;;28.80;4.43;;;;;;;-144.73;100.00;54331.75;5034641;28;20037;-66
2023/05/17 02:54:18;;;;;;;35.95;4.20;;;;;;;-144.73;100.00;54370.75;5034710;28;20047;-67
2023/05/17 02:56:44;;;;;;;36.22;4.30;;;;;;;-144.73;100.00;54300.97;5052241;28;20041;-67
2023/05/17 02:59:09;;;;;;;28.83;5.00;;;;;;;-144.73;100.00;54335.88;5034828;28;20040;-66
2023/05/17 03:01:34;;;;;;;44.38;6.00;;;;;;;-144.73;100.00;54305.06;5051859;28;20487;-66
2023/05/17 03:04:00;;;;;;;42.03;6.15;;;;;;;-144.73;100.00;54342.03;5034214;28;20464;-66
2023/05/17 03:06:25;;;;;;;33.65;5.40;;;;;;;-144.73;100.00;54350.22;5051786;28;20123;-66
2023/05/17 03:08:50;;;;;;;24.00;4.22;;;;;;;-144.73;100.00;54300.97;5034137;28;20028;-66
2023/05/17 03:11:16;;;;;;;29.13;4.10;;;;;;;-144.73;100.00;54350.22;5051861;28;20031;-66
2023/05/17 03:13:41;;;;;;;29.52;4.82;;;;;;;-144.73;100.00;54370.75;5051951;28;20124;-66
2023/05/17 03:16:08;;;;;;;31.85;4.03;;;;;;;-144.73;100.00;54337.91;5052524;28;20060;-66
2023/05/17 03:18:33;;;;;;;34.60;4.47;;;;;;;-144.73;100.00;54370.75;5033555;28;20086;-66
2023/05/17 03:20:59;;;;;;;36.15;3.65;;;;;;;-144.73;100.00;54350.22;5052653;28;20024;-66
2023/05/17 03:23:25;;;;;;;31.75;3.80;;;;;;;-144.73;100.00;54321.50;5033315;28;20082;-66
2023/05/17 03:25:50;;;;;;;32.33;4.60;;;;;;;-144.73;100.00;54342.03;5034339;28;20118;-67
2023/05/17 03:28:16;;;;;;;28.17;4.18;;;;;;;-144.73;100.00;54313.28;5033537;28;20041;-67
2023/05/17 03:30:41;;;;;;;36.28;3.88;;;;;;;-144.73;100.00;54325.59;5034037;28;20033;-67
2023/05/17 03:33:06;;;;;;;24.10;3.60;;;;;;;-144.73;100.00;54337.91;5033580;28;20072;-67
2023/05/17 03:35:31;;;;;;;28.35;3.40;;;;;;;-144.73;100.00;54360.50;5034076;28;20064;-67
2023/05/17 03:37:57;;;;;;;27.80;3.55;;;;;;;-144.73;100.00;54342.03;5033543;28;20049;-67
2023/05/17 03:40:22;;;;;;;28.98;3.97;;;;;;;-144.73;100.00;54366.66;5051254;28;20047;-67
2023/05/17 03:42:48;;;;;;;24.02;3.30;;;;;;;-144.73;100.00;54329.72;5050588;28;20159;-67
2023/05/17 03:45:14;;;;;;;27.88;4.55;;;;;;;-144.73;100.00;54337.91;5051533;28;20514;-67
2023/05/17 03:47:41;;;;;;;22.30;3.40;;;;;;;-144.73;100.00;54362.53;5033265;28;20057;-67
2023/05/17 03:50:07;;;;;;;34.95;4.55;;;;;;;-144.73;100.00;54339.97;5033534;28;20044;-67
2023/05/17 03:52:33;;;;;;;28.45;3.55;;;;;;;-144.73;100.00;54333.81;5033109;28;20033;-67
2023/05/17 03:54:58;;;;;;;30.85;3.45;;;;;;;-144.73;100.00;54354.34;5051251;28;20032;-67
2023/05/17 03:57:23;;;;;;;30.75;3.95;;;;;;;-144.73;100.00;54337.91;5033112;28;20106;-67
2023/05/17 03:59:49;;;;;;;23.25;3.75;;;;;;;-144.73;100.00;54354.34;5033232;28;20025;-68
2023/05/17 04:02:15;;;;;;;27.65;3.13;;;;;;;-144.73;100.00;54374.84;5032476;28;20060;-68
2023/05/17 04:04:41;;;;;;;34.63;4.20;;;;;;;-144.73;100.00;54333.81;5033548;28;20025;-66
2023/05/17 04:07:06;;;;;;;26.25;3.80;;;;;;;-144.73;100.00;54346.13;5033211;28;20117;-66
2023/05/17 04:09:33;;;;;;;54.33;5.72;;;;;;;-144.73;100.00;54337.91;5033383;28;20045;-67
2023/05/17 04:11:59;;;;;;;42.50;5.40;;;;;;;-144.73;100.00;54370.75;5032815;28;20107;-67
2023/05/17 04:14:25;;;;;;;32.70;3.97;;;;;;;-144.73;100.00;54333.81;5033318;28;20048;-67
2023/05/17 04:16:50;;;;;;;22.70;3.97;;;;;;;-144.73;100.00;54350.22;5032847;28;20056;-67
2023/05/17 04:19:15;;;;;;;30.95;4.28;;;;;;;-144.73;100.00;54350.22;5032972;28;20029;-67
2023/05/17 04:21:41;;;;;;;34.70;4.45;;;;;;;-144.73;100.00;54358.44;5050646;28;20086;-67
2023/05/17 04:24:06;;;;;;;31.63;4.57;;;;;;;-144.73;100.00;54325.59;5050691;28;20036;-68
2023/05/17 04:26:31;;;;;;;37.63;5.15;;;;;;;-144.73;100.00;54321.50;5032916;28;20468;-67
2023/05/17 04:28:57;;;;;;;31.92;4.60;;;;;;;-144.73;100.00;54335.88;5050721;28;20107;-68
2023/05/17 04:31:22;;;;;;;29.40;4.40;;;;;;;-144.73;100.00;54333.81;5032827;28;20140;-68
2023/05/17 04:33:47;;;;;;;29.42;4.10;;;;;;;-144.73;100.00;54354.34;5033054;28;20045;-68
2023/05/17 04:36:13;;;;;;;37.70;5.55;;;;;;;-144.73;100.00;54325.59;5032724;28;20112;-67
2023/05/17 04:38:38;;;;;;;27.27;4.05;;;;;;;-144.73;100.00;54362.53;5032794;28;20028;-68
2023/05/17 04:41:05;;;;;;;29.17;4.70;;;;;;;-144.73;98.89;54339.97;5033036;28;20033;-68
2023/05/17 04:43:31;;;;;;;35.47;5.35;;;;;;;-144.73;100.00;54313.28;5031904;28;20044;-68
2023/05/17 04:45:57;;;;;;;31.95;4.55;;;;;;;-144.73;97.65;54337.91;5033218;28;20028;-68
2023/05/17 04:48:24;;;;;;;28.48;5.13;;;;;;;-144.73;95.36;54350.22;5032056;28;20037;-68
2023/05/17 04:50:49;;;;;;;22.75;3.83;;;;;;;-144.73;95.26;54350.22;5033008;28;20029;-68
2023/05/17 04:53:15;;;;;;;29.65;4.57;;;;;;;-144.73;94.05;54362.53;5049635;28;20064;-68
2023/05/17 04:55:40;;;;;;;40.05;5.40;;;;;;;-144.73;92.76;54342.03;5032658;28;20436;-68
2023/05/17 04:58:06;;;;;;;29.23;5.72;;;;;;;-144.73;94.97;54321.50;5032462;28;20043;-66
2023/05/17 05:00:31;;;;;;;26.35;3.92;;;;;;;-144.73;93.29;54407.69;5032986;28;20037;-66
2023/05/17 05:02:57;;;;;;;31.63;4.22;;;;;;;-144.73;93.35;54350.22;5032121;28;20036;-66
2023/05/17 05:05:23;;;;;;;33.95;5.63;;;;;;;-144.73;93.40;54325.59;5050564;28;20071;-67
2023/05/17 05:07:49;;;;;;;34.47;4.30;;;;;;;-144.73;93.09;54290.72;5032238;28;20057;-67
2023/05/17 05:10:14;;;;;;;25.35;4.97;;;;;;;-144.73;90.97;54313.28;5032455;28;20053;-67
2023/05/17 05:12:40;;;;;;;34.80;4.82;;;;;;;-144.73;93.04;54319.44;5031962;28;20434;-68
2023/05/17 05:15:06;;;;;;;24.83;4.45;;;;;;;-144.73;94.85;54366.66;5035894;28;20028;-67
2023/05/17 05:17:32;;;;;;;33.83;5.07;;;;;;;-144.73;93.98;54325.59;5054072;28;20044;-67
2023/05/17 05:19:57;;;;;;;44.10;5.03;;;;;;;-144.73;93.62;54339.97;5054129;28;20033;-67
2023/05/17 05:22:23;;;;;;;32.53;4.65;;;;;;;-144.73;93.97;54337.91;5036365;28;20037;-67
2023/05/17 05:24:48;;;;;;;34.95;4.57;;;;;;;-144.73;94.81;54354.34;5036168;28;20071;-67
2023/05/17 05:27:14;;;;;;;30.90;4.38;;;;;;;-144.73;95.57;54331.75;5054064;28;20438;-67
2023/05/17 05:29:41;;;;;;;32.45;5.05;;;;;;;-144.73;95.19;54337.91;5053695;28;20094;-67
2023/05/17 05:32:07;;;;;;;31.02;4.40;;;;;;;-144.73;95.67;54346.13;5036101;28;20400;-67
2023/05/17 05:34:33;;;;;;;41.20;5.75;;;;;;;-144.73;95.39;54331.75;5036004;28;20084;-67
2023/05/17 05:36:58;;;;;;;30.73;4.50;;;;;;;-144.73;94.05;54354.34;5054013;28;20495;-67
2023/05/17 05:39:24;;;;;;;38.15;4.60;;;;;;;-144.73;95.81;54325.59;5053498;28;20113;-67
2023/05/17 05:41:50;;;;;;;33.30;4.47;;;;;;;-144.73;94.50;54300.97;5053554;28;20390;-67
2023/05/17 05:44:16;;;;;;;41.92;5.63;;;;;;;-144.73;95.13;54354.34;5035890;28;20090;-67
2023/05/17 05:46:41;;;;;;;33.05;4.72;;;;;;;-144.73;94.05;54292.75;5035619;28;20037;-67
2023/05/17 05:49:07;;;;;;;36.88;5.75;;;;;;;-144.73;93.69;54350.22;5053817;28;20040;-67
2023/05/17 05:51:33;;;;;;;36.00;5.10;;;;;;;-144.73;94.99;54305.06;5035549;28;20078;-67
2023/05/17 05:53:58;;;;;;;29.33;4.88;;;;;;;-144.73;94.25;54329.72;5035804;28;20044;-67
2023/05/17 05:56:26;;;;;;;30.45;4.63;;;;;;;-144.73;92.84;54342.03;5035655;28;20099;-68
2023/05/17 05:58:51;;;;;;;34.03;4.93;;;;;;;-144.73;89.82;54350.22;5035807;28;20029;-68
2023/05/17 06:01:16;;;;;;;24.20;4.28;;;;;;;-144.73;90.35;54346.13;5035681;28;20039;-68
2023/05/17 06:03:42;;;;;;;35.30;4.43;;;;;;;-144.73;89.56;54321.50;5035314;28;20033;-68
2023/05/17 06:06:07;;;;;;;28.15;4.10;;;;;;;-144.73;88.67;54313.28;5053638;28;20044;-68
2023/05/17 06:08:32;;;;;;;25.80;4.25;;;;;;;-144.73;89.01;54350.22;5034740;28;20036;-68
2023/05/17 06:10:58;;;;;;;22.25;3.60;;;;;;;-144.73;87.09;54292.75;5053426;28;20060;-67
2023/05/17 06:13:23;;;;;;;18.85;3.22;;;;;;;-144.73;85.25;54303.03;5052625;28;20063;-68
2023/05/17 06:15:49;;;;;;;33.42;3.95;;;;;;;-144.73;86.91;54395.38;5035722;28;20029;-68
2023/05/17 06:18:15;;;;;;;28.88;4.95;;;;;;;-144.73;86.40;54356.38;5052905;28;20037;-68
2023/05/17 06:20:40;;;;;;;31.90;4.90;;;;;;;-144.73;87.26;54317.38;5053428;28;20152;-68
2023/05/17 06:23:06;;;;;;;35.35;5.18;;;;;;;-144.73;85.84;54350.22;5034955;28;20044;-68
2023/05/17 06:25:31;;;;;;;23.33;4.88;;;;;;;-144.73;85.01;54358.44;5034381;28;20028;-68
2023/05/17 06:27:56;;;;;;;38.70;6.00;;;;;;;-144.73;84.23;54325.59;5034484;28;20151;-68
2023/05/17 06:30:22;;;;;;;25.63;4.97;;;;;;;-144.73;86.30;54329.72;5035122;28;20028;-68
2023/05/17 06:32:47;;;;;;;36.90;4.68;;;;;;;-144.73;84.65;54362.53;5052535;28;20033;-68
2023/05/17 06:35:12;;;;;;;32.22;4.07;;;;;;;-144.73;84.07;54313.28;5052937;28;20020;-68
2023/05/17 06:37:38;;;;;;;35.83;4.70;;;;;;;-144.73;83.31;54313.28;5052525;28;20044;-68
2023/05/17 06:40:05;;;;;;;27.50;3.97;;;;;;;-144.73;84.56;54321.50;5035060;28;20056;-68
2023/05/17 06:42:31;;;;;;;29.15;5.05;;;;;;;-144.73;85.12;54331.75;5034469;28;20041;-68
2023/05/17 06:44:56;;;;;;;19.65;3.05;;;;;;;-144.73;84.78;54346.13;5052354;28;20021;-68
2023/05/17 06:47:21;;;;;;;23.65;3.58;;;;;;;-144.73;83.18;54315.34;5051894;28;20043;-68
2023/05/17 06:49:47;;;;;;;27.63;3.30;;;;;;;-144.73;80.95;54317.38;5051848;28;20032;-68
2023/05/17 06:52:12;;;;;;;23.42;3.60;;;;;;;-144.73;80.80;54321.50;5052022;28;20052;-68
2023/05/17 06:54:38;;;;;;;21.30;3.05;;;;;;;-144.73;81.08;54333.81;5034298;28;20033;-69
2023/05/17 06:57:03;;;;;;;21.98;4.30;;;;;;;-144.73;76.56;54327.66;5034565;28;20037;-68
2023/05/17 06:59:29;;;;;;;22.42;3.92;;;;;;;-144.73;68.89;54329.72;5034514;28;20029;-67
2023/05/17 07:01:55;;;;;;;29.75;3.92;;;;;;;-144.73;67.92;54374.84;5033926;28;20075;-68
2023/05/17 07:04:21;;;;;;;37.05;4.53;;;;;;;-144.73;68.02;54300.97;5034519;28;20024;-68
2023/05/17 07:06:46;;;;;;;13.98;3.20;;;;;;;-144.73;67.80;54325.59;5037557;28;20074;-68
2023/05/17 07:09:12;;;;;;;20.65;3.35;;;;;;;-144.73;68.52;54321.50;5073351;28;20024;-68
2023/05/17 07:11:37;;;;;;;25.20;3.58;;;;;;;-144.73;65.85;54350.22;5043932;28;20032;-68
2023/05/17 07:14:03;;;;;;;22.25;3.90;;;;;;;-144.73;66.49;54350.22;5037201;28;20047;-68
2023/05/17 07:16:28;;;;;;;29.48;4.47;;;;;;;-144.73;67.17;54329.72;5064492;28;20032;-68
2023/05/17 07:18:53;;;;;;;21.42;2.72;;;;;;;-144.73;66.35;54313.28;5048891;28;20020;-68
2023/05/17 07:21:19;;;;;;;29.65;3.90;;;;;;;-144.73;66.52;54370.75;5055700;28;20055;-68
2023/05/17 07:23:44;;;;;;;23.05;4.13;;;;;;;-144.73;66.25;54313.28;5065060;28;20062;-69
2023/05/17 07:26:09;;;;;;;24.67;3.35;;;;;;;-144.73;65.53;54333.81;5042217;28;20021;-68
2023/05/17 07:28:35;;;;;;;14.63;3.50;;;;;;;-144.73;67.18;54333.81;5033389;28;20036;-68
2023/05/17 07:31:00;;;;;;;21.00;3.80;;;;;;;-144.73;64.66;54313.28;5055269;28;20094;-68
2023/05/17 07:33:26;;;;;;;26.08;3.33;;;;;;;-144.73;65.46;54337.91;5042059;28;20033;-68
2023/05/17 07:35:51;;;;;;;25.08;3.58;;;;;;;-144.73;64.25;54323.53;5028948;28;20051;-68
2023/05/17 07:38:17;;;;;;;30.45;5.32;;;;;;;-144.73;65.24;54298.91;5041365;28;20067;-68
2023/05/17 07:40:42;;;;;;;25.10;3.22;;;;;;;-144.73;65.04;54305.06;5038830;28;20066;-68
2023/05/17 07:43:07;;;;;;;29.00;3.33;;;;;;;-144.73;64.09;54321.50;5053720;28;20523;-68
2023/05/17 07:45:33;;;;;;;31.30;3.60;;;;;;;-144.73;63.61;54313.28;5058131;28;20016;-68
2023/05/17 07:47:58;;;;;;;24.75;3.47;;;;;;;-144.73;65.74;54315.34;5054662;28;20033;-68
2023/05/17 07:50:24;;;;;;;20.05;4.15;;;;;;;-144.73;64.57;54300.97;5046873;28;20097;-68
2023/05/17 07:52:50;;;;;;;27.95;4.10;;;;;;;-144.73;64.77;54362.53;5033931;28;20035;-67
2023/05/17 07:55:16;;;;;;;32.20;3.70;;;;;;;-144.73;64.77;54292.75;5043655;28;20036;-68
2023/05/17 07:57:48;;;;;;;19.75;4.00;;;;;;;-144.73;64.84;54321.50;5082659;27;20568;-68
2023/05/17 08:00:13;;;;;;;23.00;3.85;;;;;;;-144.73;63.74;54288.66;5060823;28;20136;-68
2023/05/17 08:02:39;;;;;;;24.42;3.38;;;;;;;-144.73;63.19;54288.66;5060471;28;20048;-68
2023/05/17 08:05:07;;;;;;;24.80;3.15;;;;;;;-144.73;63.64;54284.56;5059662;28;20097;-68
2023/05/17 08:07:32;;;;;;;21.15;3.33;;;;;;;-144.73;62.61;54292.75;5060582;28;20123;-68
2023/05/17 08:09:58;;;;;;;22.88;3.47;;;;;;;-144.73;64.38;54317.38;5061938;28;20084;-68
2023/05/17 08:12:23;;;;;;;17.95;3.13;;;;;;;-144.73;63.52;54329.72;5070352;28;20079;-68
2023/05/17 08:14:48;;;;;;;30.10;4.70;;;;;;;-144.73;64.88;54300.97;5080368;28;20024;-68
2023/05/17 08:17:14;;;;;;;18.90;3.67;;;;;;;-144.73;65.97;54292.75;5080657;28;20517;-68
2023/05/17 08:19:39;;;;;;;24.35;3.63;;;;;;;-144.73;66.24;54257.88;5097371;28;20032;-68
2023/05/17 08:22:05;;;;;;;21.30;3.72;;;;;;;-144.73;64.60;54337.91;5078766;28;20052;-67
2023/05/17 08:24:30;;;;;;;25.98;3.72;;;;;;;-144.73;64.80;54321.50;5076879;28;20060;-69
2023/05/17 08:26:56;;;;;;;23.08;4.03;;;;;;;-144.73;64.42;54288.66;5079008;28;20066;-69
2023/05/17 08:29:21;;;;;;;24.90;3.38;;;;;;;-144.73;66.78;54313.28;5080635;28;20046;-68
2023/05/17 08:31:46;;;;;;;16.65;3.20;;;;;;;-144.73;64.63;54333.81;5079519;28;20037;-68
2023/05/17 08:34:12;;;;;;;26.35;3.72;;;;;;;-144.73;64.88;54342.03;5080475;28;20024;-68
2023/05/17 08:36:37;;;;;;;25.85;4.28;;;;;;;-144.73;66.63;54325.59;5080871;28;20040;-68
2023/05/17 08:39:03;;;;;;;30.50;3.70;;;;;;;-144.73;65.83;54292.75;5078615;28;20382;-68
2023/05/17 08:41:30;;;;;;;23.63;4.20;;;;;;;-144.73;65.51;54319.44;5080514;28;20070;-68
2023/05/17 08:43:57;;;;;;;26.17;4.72;;;;;;;-144.73;67.53;54296.88;5078385;28;20092;-68
2023/05/17 08:46:25;;;;;;;22.20;3.75;;;;;;;-144.73;63.09;54288.66;5079743;28;20028;-68
2023/05/17 08:48:52;;;;;;;22.88;3.38;;;;;;;-144.73;63.10;54300.97;5077419;28;20017;-68
2023/05/17 08:51:20;;;;;;;17.70;3.17;;;;;;;-144.73;61.15;54305.06;5073548;28;20032;-69
2023/05/17 08:53:46;;;;;;;21.02;4.20;;;;;;;-144.73;57.43;54276.34;5080716;28;20032;-69
2023/05/17 08:56:15;;;;;;;18.20;3.30;;;;;;;-144.73;57.91;54300.97;5080635;28;20092;-68
2023/05/17 08:58:42;;;;;;;26.75;4.25;;;;;;;-144.73;56.89;54313.28;5079570;28;20059;-68
2023/05/17 09:01:08;;;;;;;22.10;3.35;;;;;;;-144.73;56.30;54290.72;5081013;28;20024;-69
2023/05/17 09:03:35;;;;;;;17.42;3.95;;;;;;;-144.73;56.47;54317.38;5078954;28;20036;-68
2023/05/17 09:06:02;;;;;;;26.10;4.70;;;;;;;-144.73;58.64;54333.81;5080149;28;20030;-68
2023/05/17 09:08:29;;;;;;;23.13;4.28;;;;;;;-144.73;60.11;54329.72;5068856;28;20048;-68
2023/05/17 09:10:55;;;;;;;20.95;3.60;;;;;;;-144.73;59.52;54284.56;5064703;28;20047;-68
2023/05/17 09:13:21;;;;;;;28.08;4.40;;;;;;;-144.73;60.49;54300.97;5063014;28;20048;-68
2023/05/17 09:15:47;;;;;;;21.45;3.33;;;;;;;-144.73;57.54;54346.13;5066276;28;20027;-69
2023/05/17 09:18:13;;;;;;;21.67;3.22;;;;;;;-144.73;59.72;54309.19;5064888;28;20047;-68
2023/05/17 09:20:40;;;;;;;32.05;3.95;;;;;;;-144.73;58.62;54346.13;5065512;28;20032;-68
2023/05/17 09:23:08;;;;;;;21.25;3.08;;;;;;;-144.73;59.56;54325.59;5066164;28;20036;-68
2023/05/17 09:25:34;;;;;;;27.25;4.22;;;;;;;-144.73;59.16;54305.06;5066125;28;20024;-68
2023/05/17 09:28:06;;;;;;;26.08;4.28;;;;;;;-144.73;60.70;54333.81;5065344;28;20110;-68
2023/05/17 09:30:33;;;;;;;32.65;3.92;;;;;;;-144.73;60.65;54290.72;5064509;28;20028;-68
2023/05/17 09:33:10;;;;;;;19.80;4.25;;;;;;;-144.73;61.81;54329.72;5065318;28;20032;-68
2023/05/17 09:35:36;;;;;;;21.77;3.58;;;;;;;-144.73;61.98;54296.88;5065005;28;20032;-69
2023/05/17 09:38:10;;;;;;;28.40;4.47;;;;;;;-144.73;63.21;54284.56;5065392;28;20068;-68
2023/05/17 09:40:41;;;;;;;31.15;5.50;;;;;;;-144.73;62.68;54264.03;5065457;28;20044;-68
2023/05/17 09:43:07;;;;;;;24.00;4.72;;;;;;;-144.73;62.51;54307.13;5065986;28;20546;-68
2023/05/17 09:45:34;;;;;;;26.63;4.93;;;;;;;-144.73;62.64;54292.75;5066315;28;20028;-68
2023/05/17 09:48:14;;;;;;;21.27;4.53;;;;;;;-144.73;61.27;54284.56;5064378;28;20033;-68
2023/05/17 09:50:59;;;;;;;28.02;4.57;;;;;;;-144.73;58.68;54309.19;5054229;28;20036;-68
2023/05/17 09:53:25;;;;;;;25.38;3.83;;;;;;;-144.73;58.94;54309.19;5062845;28;20029;-68
2023/05/17 09:55:53;;;;;;;24.80;4.00;;;;;;;-144.73;59.46;54268.13;5064466;28;20044;-68
2023/05/17 09:58:20;;;;;;;19.65;3.40;;;;;;;-144.73;57.15;54268.13;5065964;28;20035;-69
2023/05/17 10:00:51;;;;;;;21.90;3.60;;;;;;;-144.73;58.57;54298.91;5063116;28;20903;-68
2023/05/17 10:03:16;;;;;;;30.88;4.45;;;;;;;-144.73;56.74;54309.19;5062703;28;20107;-68
2023/05/17 10:05:43;;;;;;;24.60;3.95;;;;;;;-144.73;56.23;54288.66;5066439;28;20028;-68
2023/05/17 10:08:12;;;;;;;23.25;3.85;;;;;;;-144.73;56.79;54307.13;5064192;28;20112;-68
2023/05/17 10:10:38;;;;;;;23.08;4.95;;;;;;;-144.73;57.88;54329.72;5064207;28;20074;-68
2023/05/17 10:13:05;;;;;;;20.00;3.88;;;;;;;-144.73;56.55;54288.66;5059636;28;20590;-68
2023/05/17 10:15:32;;;;;;;18.20;5.53;;;;;;;-144.73;54.79;54325.59;5062527;28;20020;-68
2023/05/17 10:17:59;;;;;;;18.98;3.35;;;;;;;-144.73;55.62;54276.34;5063077;28;20036;-68
2023/05/17 10:20:25;;;;;;;19.08;3.53;;;;;;;-144.73;55.38;54313.28;5062671;28;20100;-68
2023/05/17 10:22:51;;;;;;;20.65;3.80;;;;;;;-144.73;55.16;54280.44;5059988;28;20115;-68
2023/05/17 10:25:17;;;;;;;17.67;3.97;;;;;;;-144.73;55.27;54342.03;5065217;28;20156;-68
2023/05/17 10:27:42;;;;;;;14.18;2.90;;;;;;;-144.73;56.15;54350.22;5062554;28;20029;-69
2023/05/17 10:30:10;;;;;;;24.85;4.10;;;;;;;-144.73;54.66;54296.88;5064440;28;20020;-69
2023/05/17 10:32:35;;;;;;;18.52;3.97;;;;;;;-144.73;54.86;54251.72;5062384;28;20041;-68
2023/05/17 10:35:02;;;;;;;20.38;3.70;;;;;;;-144.73;55.24;54342.03;5064766;28;20050;-68
2023/05/17 10:37:29;;;;;;;18.48;3.58;;;;;;;-144.73;55.92;54309.19;5063695;28;20032;-68
2023/05/17 10:39:55;;;;;;;26.08;3.75;;;;;;;-144.73;57.08;54337.91;5063345;28;20047;-68
2023/05/17 10:42:21;;;;;;;16.15;3.70;;;;;;;-144.73;57.22;54300.97;5065244;28;20072;-68
2023/05/17 10:44:46;;;;;;;14.57;3.17;;;;;;;-144.73;60.43;54325.59;5062835;28;20483;-68
2023/05/17 10:47:13;;;;;;;16.15;3.40;;;;;;;-144.73;63.41;54309.19;5061553;28;20376;-68
2023/05/17 10:49:40;;;;;;;19.00;3.58;;;;;;;-144.73;62.28;54278.41;5062745;28;20067;-69
2023/05/17 10:52:16;;;;;;;20.65;2.72;;;;;;;-144.73;61.13;54257.88;5062362;28;20040;-68
2023/05/17 10:54:43;;;;;;;13.77;3.40;;;;;;;-144.73;59.47;54280.44;5062736;28;20119;-68
2023/05/17 10:57:36;;;;;;;15.10;2.75;;;;;;;-144.73;62.14;54255.81;5065177;28;20135;-69
2023/05/17 11:00:06;;;;;;;14.82;2.33;;;;;;;-144.73;58.51;54276.34;5056361;28;20029;-68
2023/05/17 11:02:39;;;;;;;17.50;2.95;;;;;;;-144.73;57.19;54259.91;5064113;28;20036;-68
2023/05/17 11:05:04;;;;;;;13.68;2.53;;;;;;;-144.73;57.93;54296.88;5063341;28;20098;-68